<?xml version="1.0" encoding="UTF-8" standalone="no" ?>
<gpx xmlns="http://www.topografix.com/GPX/1/1" xmlns:xsi="http://www.w3.org/2001/XMLSchema-instance" xsi:schemaLocation="http://www.topografix.com/GPX/1/1 http://www.topografix.com/GPX/1/1/gpx.xsd" version="1.1" creator="VisuGPX - https://www.visugpx.com">
  <metadata>
    <name>Les Pénitents des Mées</name>
    <desc><![CDATA[Boucle de 14 km, dénivelé cumulé 420 m]]></desc>
  </metadata>
  <trk>
    <name><![CDATA[Les Pénitents des Mées 4 oct. 2017]]></name>
    <trkseg>
      <trkpt lat="44.02849" lon="5.97527">
        <ele>428</ele>
        <time>2017-10-02T08:41:32Z</time>
      </trkpt>
      <trkpt lat="44.02849" lon="5.97527">
        <ele>428</ele>
        <time>2017-10-02T08:41:37Z</time>
      </trkpt>
      <trkpt lat="44.02829" lon="5.97469">
        <ele>416</ele>
        <time>2017-10-02T08:42:21Z</time>
      </trkpt>
      <trkpt lat="44.02798" lon="5.97419">
        <ele>413</ele>
        <time>2017-10-02T08:42:54Z</time>
      </trkpt>
      <trkpt lat="44.02773" lon="5.97362">
        <ele>412</ele>
        <time>2017-10-02T08:43:34Z</time>
      </trkpt>
      <trkpt lat="44.02758" lon="5.97299">
        <ele>411</ele>
        <time>2017-10-02T08:44:12Z</time>
      </trkpt>
      <trkpt lat="44.02749" lon="5.97234">
        <ele>410</ele>
        <time>2017-10-02T08:44:47Z</time>
      </trkpt>
      <trkpt lat="44.02724" lon="5.97177">
        <ele>411</ele>
        <time>2017-10-02T08:45:27Z</time>
      </trkpt>
      <trkpt lat="44.02689" lon="5.97129">
        <ele>415</ele>
        <time>2017-10-02T08:46:19Z</time>
      </trkpt>
      <trkpt lat="44.02659" lon="5.9708">
        <ele>420</ele>
        <time>2017-10-02T08:47:18Z</time>
      </trkpt>
      <trkpt lat="44.02628" lon="5.97034">
        <ele>423</ele>
        <time>2017-10-02T08:48:17Z</time>
      </trkpt>
      <trkpt lat="44.02597" lon="5.96986">
        <ele>428</ele>
        <time>2017-10-02T08:49:04Z</time>
      </trkpt>
      <trkpt lat="44.0255" lon="5.96983">
        <ele>430</ele>
        <time>2017-10-02T08:50:06Z</time>
      </trkpt>
      <trkpt lat="44.02508" lon="5.97006">
        <ele>432</ele>
        <time>2017-10-02T08:50:56Z</time>
      </trkpt>
      <trkpt lat="44.02492" lon="5.97069">
        <ele>438</ele>
        <time>2017-10-02T08:51:45Z</time>
      </trkpt>
      <trkpt lat="44.0247" lon="5.97128">
        <ele>445</ele>
        <time>2017-10-02T08:52:29Z</time>
      </trkpt>
      <trkpt lat="44.02461" lon="5.97061">
        <ele>452</ele>
        <time>2017-10-02T08:53:36Z</time>
      </trkpt>
      <trkpt lat="44.02461" lon="5.96993">
        <ele>457</ele>
        <time>2017-10-02T08:54:23Z</time>
      </trkpt>
      <trkpt lat="44.02451" lon="5.96926">
        <ele>463</ele>
        <time>2017-10-02T08:55:08Z</time>
      </trkpt>
      <trkpt lat="44.02406" lon="5.96929">
        <ele>474</ele>
        <time>2017-10-02T08:59:01Z</time>
      </trkpt>
      <trkpt lat="44.02382" lon="5.96992">
        <ele>494</ele>
        <time>2017-10-02T09:00:58Z</time>
      </trkpt>
      <trkpt lat="44.02365" lon="5.97062">
        <ele>507</ele>
        <time>2017-10-02T09:02:30Z</time>
      </trkpt>
      <trkpt lat="44.0234" lon="5.97114">
        <ele>517</ele>
        <time>2017-10-02T09:03:41Z</time>
      </trkpt>
      <trkpt lat="44.02303" lon="5.97166">
        <ele>532</ele>
        <time>2017-10-02T09:05:29Z</time>
      </trkpt>
      <trkpt lat="44.02262" lon="5.97204">
        <ele>554</ele>
        <time>2017-10-02T09:10:17Z</time>
      </trkpt>
      <trkpt lat="44.0222" lon="5.9724">
        <ele>572</ele>
        <time>2017-10-02T09:12:27Z</time>
      </trkpt>
      <trkpt lat="44.02174" lon="5.97247">
        <ele>584</ele>
        <time>2017-10-02T09:14:52Z</time>
      </trkpt>
      <trkpt lat="44.02132" lon="5.97272">
        <ele>592</ele>
        <time>2017-10-02T09:15:54Z</time>
      </trkpt>
      <trkpt lat="44.02086" lon="5.97277">
        <ele>603</ele>
        <time>2017-10-02T09:17:07Z</time>
      </trkpt>
      <trkpt lat="44.02043" lon="5.97301">
        <ele>613</ele>
        <time>2017-10-02T09:18:17Z</time>
      </trkpt>
      <trkpt lat="44.02004" lon="5.97352">
        <ele>617</ele>
        <time>2017-10-02T09:19:31Z</time>
      </trkpt>
      <trkpt lat="44.01967" lon="5.97391">
        <ele>621</ele>
        <time>2017-10-02T09:20:28Z</time>
      </trkpt>
      <trkpt lat="44.01927" lon="5.97427">
        <ele>629</ele>
        <time>2017-10-02T09:21:50Z</time>
      </trkpt>
      <trkpt lat="44.01908" lon="5.97485">
        <ele>635</ele>
        <time>2017-10-02T09:22:47Z</time>
      </trkpt>
      <trkpt lat="44.01903" lon="5.97548">
        <ele>644</ele>
        <time>2017-10-02T09:23:58Z</time>
      </trkpt>
      <trkpt lat="44.01902" lon="5.97613">
        <ele>649</ele>
        <time>2017-10-02T09:25:01Z</time>
      </trkpt>
      <trkpt lat="44.01905" lon="5.97679">
        <ele>646</ele>
        <time>2017-10-02T09:25:58Z</time>
      </trkpt>
      <trkpt lat="44.01932" lon="5.97731">
        <ele>649</ele>
        <time>2017-10-02T09:26:42Z</time>
      </trkpt>
      <trkpt lat="44.01959" lon="5.97784">
        <ele>648</ele>
        <time>2017-10-02T09:27:23Z</time>
      </trkpt>
      <trkpt lat="44.01983" lon="5.97837">
        <ele>650</ele>
        <time>2017-10-02T09:28:26Z</time>
      </trkpt>
      <trkpt lat="44.02013" lon="5.97887">
        <ele>655</ele>
        <time>2017-10-02T09:29:21Z</time>
      </trkpt>
      <trkpt lat="44.02038" lon="5.9794">
        <ele>664</ele>
        <time>2017-10-02T09:30:25Z</time>
      </trkpt>
      <trkpt lat="44.0206" lon="5.98004">
        <ele>669</ele>
        <time>2017-10-02T09:31:44Z</time>
      </trkpt>
      <trkpt lat="44.02052" lon="5.98067">
        <ele>667</ele>
        <time>2017-10-02T09:33:35Z</time>
      </trkpt>
      <trkpt lat="44.02041" lon="5.9813">
        <ele>669</ele>
        <time>2017-10-02T09:34:21Z</time>
      </trkpt>
      <trkpt lat="44.02024" lon="5.98191">
        <ele>675</ele>
        <time>2017-10-02T09:36:18Z</time>
      </trkpt>
      <trkpt lat="44.02012" lon="5.98253">
        <ele>682</ele>
        <time>2017-10-02T09:37:05Z</time>
      </trkpt>
      <trkpt lat="44.01984" lon="5.98313">
        <ele>693</ele>
        <time>2017-10-02T09:38:07Z</time>
      </trkpt>
      <trkpt lat="44.0196" lon="5.9837">
        <ele>697</ele>
        <time>2017-10-02T09:38:56Z</time>
      </trkpt>
      <trkpt lat="44.01935" lon="5.98426">
        <ele>705</ele>
        <time>2017-10-02T09:39:46Z</time>
      </trkpt>
      <trkpt lat="44.01913" lon="5.98482">
        <ele>710</ele>
        <time>2017-10-02T09:41:33Z</time>
      </trkpt>
      <trkpt lat="44.01897" lon="5.98543">
        <ele>714</ele>
        <time>2017-10-02T09:42:25Z</time>
      </trkpt>
      <trkpt lat="44.01888" lon="5.98609">
        <ele>719</ele>
        <time>2017-10-02T09:43:13Z</time>
      </trkpt>
      <trkpt lat="44.01865" lon="5.98666">
        <ele>723</ele>
        <time>2017-10-02T09:44:00Z</time>
      </trkpt>
      <trkpt lat="44.01834" lon="5.98716">
        <ele>729</ele>
        <time>2017-10-02T09:44:49Z</time>
      </trkpt>
      <trkpt lat="44.01795" lon="5.9875">
        <ele>732</ele>
        <time>2017-10-02T09:45:42Z</time>
      </trkpt>
      <trkpt lat="44.01748" lon="5.98765">
        <ele>736</ele>
        <time>2017-10-02T09:46:25Z</time>
      </trkpt>
      <trkpt lat="44.01704" lon="5.98741">
        <ele>741</ele>
        <time>2017-10-02T09:47:17Z</time>
      </trkpt>
      <trkpt lat="44.01668" lon="5.98794">
        <ele>743</ele>
        <time>2017-10-02T09:48:16Z</time>
      </trkpt>
      <trkpt lat="44.01643" lon="5.98849">
        <ele>743</ele>
        <time>2017-10-02T09:49:10Z</time>
      </trkpt>
      <trkpt lat="44.01604" lon="5.98884">
        <ele>747</ele>
        <time>2017-10-02T09:49:52Z</time>
      </trkpt>
      <trkpt lat="44.01562" lon="5.98916">
        <ele>754</ele>
        <time>2017-10-02T09:50:39Z</time>
      </trkpt>
      <trkpt lat="44.01576" lon="5.98977">
        <ele>760</ele>
        <time>2017-10-02T09:54:39Z</time>
      </trkpt>
      <trkpt lat="44.01591" lon="5.99039">
        <ele>761</ele>
        <time>2017-10-02T09:55:25Z</time>
      </trkpt>
      <trkpt lat="44.01582" lon="5.99102">
        <ele>762</ele>
        <time>2017-10-02T09:56:07Z</time>
      </trkpt>
      <trkpt lat="44.01561" lon="5.99159">
        <ele>761</ele>
        <time>2017-10-02T09:56:49Z</time>
      </trkpt>
      <trkpt lat="44.01564" lon="5.99224">
        <ele>760</ele>
        <time>2017-10-02T09:57:56Z</time>
      </trkpt>
      <trkpt lat="44.01523" lon="5.99175">
        <ele>760</ele>
        <time>2017-10-02T09:59:01Z</time>
      </trkpt>
      <trkpt lat="44.01563" lon="5.99223">
        <ele>759</ele>
        <time>2017-10-02T10:02:44Z</time>
      </trkpt>
      <trkpt lat="44.01596" lon="5.99278">
        <ele>757</ele>
        <time>2017-10-02T10:03:50Z</time>
      </trkpt>
      <trkpt lat="44.0161" lon="5.99342">
        <ele>759</ele>
        <time>2017-10-02T10:05:29Z</time>
      </trkpt>
      <trkpt lat="44.01587" lon="5.99399">
        <ele>761</ele>
        <time>2017-10-02T10:06:09Z</time>
      </trkpt>
      <trkpt lat="44.01557" lon="5.99453">
        <ele>762</ele>
        <time>2017-10-02T10:06:54Z</time>
      </trkpt>
      <trkpt lat="44.01523" lon="5.99498">
        <ele>760</ele>
        <time>2017-10-02T10:07:33Z</time>
      </trkpt>
      <trkpt lat="44.01488" lon="5.99538">
        <ele>757</ele>
        <time>2017-10-02T10:08:12Z</time>
      </trkpt>
      <trkpt lat="44.01454" lon="5.99587">
        <ele>755</ele>
        <time>2017-10-02T10:08:52Z</time>
      </trkpt>
      <trkpt lat="44.01421" lon="5.99634">
        <ele>754</ele>
        <time>2017-10-02T10:09:30Z</time>
      </trkpt>
      <trkpt lat="44.01401" lon="5.99695">
        <ele>755</ele>
        <time>2017-10-02T10:10:10Z</time>
      </trkpt>
      <trkpt lat="44.01389" lon="5.99758">
        <ele>755</ele>
        <time>2017-10-02T10:10:51Z</time>
      </trkpt>
      <trkpt lat="44.01389" lon="5.99823">
        <ele>753</ele>
        <time>2017-10-02T10:11:31Z</time>
      </trkpt>
      <trkpt lat="44.01362" lon="5.9988">
        <ele>752</ele>
        <time>2017-10-02T10:12:11Z</time>
      </trkpt>
      <trkpt lat="44.01325" lon="5.99918">
        <ele>755</ele>
        <time>2017-10-02T10:13:28Z</time>
      </trkpt>
      <trkpt lat="44.01287" lon="5.99958">
        <ele>759</ele>
        <time>2017-10-02T10:14:11Z</time>
      </trkpt>
      <trkpt lat="44.01248" lon="5.99997">
        <ele>763</ele>
        <time>2017-10-02T10:14:54Z</time>
      </trkpt>
      <trkpt lat="44.01204" lon="6.00017">
        <ele>767</ele>
        <time>2017-10-02T10:15:33Z</time>
      </trkpt>
      <trkpt lat="44.01158" lon="6.00005">
        <ele>771</ele>
        <time>2017-10-02T10:16:15Z</time>
      </trkpt>
      <trkpt lat="44.01178" lon="6.00062">
        <ele>774</ele>
        <time>2017-10-02T10:17:08Z</time>
      </trkpt>
      <trkpt lat="44.01231" lon="6.00073">
        <ele>778</ele>
        <time>2017-10-02T10:18:49Z</time>
      </trkpt>
      <trkpt lat="44.01274" lon="6.00098">
        <ele>783</ele>
        <time>2017-10-02T10:19:31Z</time>
      </trkpt>
      <trkpt lat="44.01307" lon="6.00147">
        <ele>785</ele>
        <time>2017-10-02T10:20:17Z</time>
      </trkpt>
      <trkpt lat="44.01339" lon="6.00193">
        <ele>787</ele>
        <time>2017-10-02T10:23:47Z</time>
      </trkpt>
      <trkpt lat="44.01374" lon="6.00239">
        <ele>786</ele>
        <time>2017-10-02T10:26:08Z</time>
      </trkpt>
      <trkpt lat="44.01408" lon="6.00284">
        <ele>786</ele>
        <time>2017-10-02T10:26:48Z</time>
      </trkpt>
      <trkpt lat="44.01438" lon="6.00337">
        <ele>789</ele>
        <time>2017-10-02T10:27:33Z</time>
      </trkpt>
      <trkpt lat="44.01445" lon="6.004">
        <ele>793</ele>
        <time>2017-10-02T10:28:15Z</time>
      </trkpt>
      <trkpt lat="44.01438" lon="6.00465">
        <ele>798</ele>
        <time>2017-10-02T10:28:57Z</time>
      </trkpt>
      <trkpt lat="44.01448" lon="6.00529">
        <ele>801</ele>
        <time>2017-10-02T10:29:37Z</time>
      </trkpt>
      <trkpt lat="44.01488" lon="6.00565">
        <ele>802</ele>
        <time>2017-10-02T10:30:19Z</time>
      </trkpt>
      <trkpt lat="44.01532" lon="6.00591">
        <ele>803</ele>
        <time>2017-10-02T10:31:03Z</time>
      </trkpt>
      <trkpt lat="44.01561" lon="6.00643">
        <ele>805</ele>
        <time>2017-10-02T10:31:45Z</time>
      </trkpt>
      <trkpt lat="44.01589" lon="6.00705">
        <ele>807</ele>
        <time>2017-10-02T10:33:28Z</time>
      </trkpt>
      <trkpt lat="44.0162" lon="6.00754">
        <ele>808</ele>
        <time>2017-10-02T10:34:09Z</time>
      </trkpt>
      <trkpt lat="44.0165" lon="6.00806">
        <ele>808</ele>
        <time>2017-10-02T10:34:50Z</time>
      </trkpt>
      <trkpt lat="44.01683" lon="6.00854">
        <ele>807</ele>
        <time>2017-10-02T10:35:28Z</time>
      </trkpt>
      <trkpt lat="44.01718" lon="6.00902">
        <ele>807</ele>
        <time>2017-10-02T10:36:08Z</time>
      </trkpt>
      <trkpt lat="44.0174" lon="6.00961">
        <ele>809</ele>
        <time>2017-10-02T10:36:49Z</time>
      </trkpt>
      <trkpt lat="44.01739" lon="6.01026">
        <ele>809</ele>
        <time>2017-10-02T10:37:28Z</time>
      </trkpt>
      <trkpt lat="44.01734" lon="6.01092">
        <ele>813</ele>
        <time>2017-10-02T10:38:14Z</time>
      </trkpt>
      <trkpt lat="44.0173" lon="6.01159">
        <ele>815</ele>
        <time>2017-10-02T10:38:57Z</time>
      </trkpt>
      <trkpt lat="44.01719" lon="6.01221">
        <ele>816</ele>
        <time>2017-10-02T10:39:39Z</time>
      </trkpt>
      <trkpt lat="44.01725" lon="6.01285">
        <ele>816</ele>
        <time>2017-10-02T10:42:55Z</time>
      </trkpt>
      <trkpt lat="44.01735" lon="6.01351">
        <ele>816</ele>
        <time>2017-10-02T10:43:33Z</time>
      </trkpt>
      <trkpt lat="44.01757" lon="6.01411">
        <ele>817</ele>
        <time>2017-10-02T10:44:14Z</time>
      </trkpt>
      <trkpt lat="44.01766" lon="6.01476">
        <ele>816</ele>
        <time>2017-10-02T10:44:53Z</time>
      </trkpt>
      <trkpt lat="44.01768" lon="6.01542">
        <ele>813</ele>
        <time>2017-10-02T10:45:32Z</time>
      </trkpt>
      <trkpt lat="44.01773" lon="6.01608">
        <ele>812</ele>
        <time>2017-10-02T10:46:15Z</time>
      </trkpt>
      <trkpt lat="44.0177" lon="6.01676">
        <ele>813</ele>
        <time>2017-10-02T10:46:55Z</time>
      </trkpt>
      <trkpt lat="44.01751" lon="6.01736">
        <ele>816</ele>
        <time>2017-10-02T10:47:41Z</time>
      </trkpt>
      <trkpt lat="44.01755" lon="6.01804">
        <ele>819</ele>
        <time>2017-10-02T10:48:22Z</time>
      </trkpt>
      <trkpt lat="44.01762" lon="6.01869">
        <ele>822</ele>
        <time>2017-10-02T10:49:08Z</time>
      </trkpt>
      <trkpt lat="44.01764" lon="6.01936">
        <ele>825</ele>
        <time>2017-10-02T10:49:55Z</time>
      </trkpt>
      <trkpt lat="44.01739" lon="6.01995">
        <ele>825</ele>
        <time>2017-10-02T10:50:39Z</time>
      </trkpt>
      <trkpt lat="44.01729" lon="6.02057">
        <ele>823</ele>
        <time>2017-10-02T10:51:51Z</time>
      </trkpt>
      <trkpt lat="44.01731" lon="6.02124">
        <ele>823</ele>
        <time>2017-10-02T10:52:33Z</time>
      </trkpt>
      <trkpt lat="44.01774" lon="6.02168">
        <ele>823</ele>
        <time>2017-10-02T10:53:36Z</time>
      </trkpt>
      <trkpt lat="44.01812" lon="6.02204">
        <ele>824</ele>
        <time>2017-10-02T10:54:22Z</time>
      </trkpt>
      <trkpt lat="44.01839" lon="6.02259">
        <ele>825</ele>
        <time>2017-10-02T10:55:02Z</time>
      </trkpt>
      <trkpt lat="44.01865" lon="6.02311">
        <ele>826</ele>
        <time>2017-10-02T10:55:39Z</time>
      </trkpt>
      <trkpt lat="44.01896" lon="6.02357">
        <ele>827</ele>
        <time>2017-10-02T10:56:15Z</time>
      </trkpt>
      <trkpt lat="44.01932" lon="6.02397">
        <ele>829</ele>
        <time>2017-10-02T10:56:53Z</time>
      </trkpt>
      <trkpt lat="44.01971" lon="6.02432">
        <ele>828</ele>
        <time>2017-10-02T10:57:31Z</time>
      </trkpt>
      <trkpt lat="44.01999" lon="6.02482">
        <ele>827</ele>
        <time>2017-10-02T10:58:09Z</time>
      </trkpt>
      <trkpt lat="44.02" lon="6.02547">
        <ele>826</ele>
        <time>2017-10-02T10:58:47Z</time>
      </trkpt>
      <trkpt lat="44.01976" lon="6.02605">
        <ele>826</ele>
        <time>2017-10-02T11:00:27Z</time>
      </trkpt>
      <trkpt lat="44.01952" lon="6.02663">
        <ele>822</ele>
        <time>2017-10-02T11:01:07Z</time>
      </trkpt>
      <trkpt lat="44.01927" lon="6.02719">
        <ele>820</ele>
        <time>2017-10-02T11:01:47Z</time>
      </trkpt>
      <trkpt lat="44.01978" lon="6.02727">
        <ele>819</ele>
        <time>2017-10-02T11:03:55Z</time>
      </trkpt>
      <trkpt lat="44.02024" lon="6.02714">
        <ele>821</ele>
        <time>2017-10-02T11:04:37Z</time>
      </trkpt>
      <trkpt lat="44.02071" lon="6.02707">
        <ele>819</ele>
        <time>2017-10-02T11:05:18Z</time>
      </trkpt>
      <trkpt lat="44.02113" lon="6.02677">
        <ele>813</ele>
        <time>2017-10-02T11:06:02Z</time>
      </trkpt>
      <trkpt lat="44.02159" lon="6.02664">
        <ele>811</ele>
        <time>2017-10-02T11:06:44Z</time>
      </trkpt>
      <trkpt lat="44.02112" lon="6.02682">
        <ele>811</ele>
        <time>2017-10-02T12:03:10Z</time>
      </trkpt>
      <trkpt lat="44.02069" lon="6.02709">
        <ele>817</ele>
        <time>2017-10-02T12:03:57Z</time>
      </trkpt>
      <trkpt lat="44.02067" lon="6.02639">
        <ele>823</ele>
        <time>2017-10-02T12:05:24Z</time>
      </trkpt>
      <trkpt lat="44.02106" lon="6.02602">
        <ele>826</ele>
        <time>2017-10-02T12:06:46Z</time>
      </trkpt>
      <trkpt lat="44.02151" lon="6.02587">
        <ele>827</ele>
        <time>2017-10-02T12:07:30Z</time>
      </trkpt>
      <trkpt lat="44.02197" lon="6.02581">
        <ele>826</ele>
        <time>2017-10-02T12:08:32Z</time>
      </trkpt>
      <trkpt lat="44.02243" lon="6.02587">
        <ele>823</ele>
        <time>2017-10-02T12:09:17Z</time>
      </trkpt>
      <trkpt lat="44.02289" lon="6.02608">
        <ele>824</ele>
        <time>2017-10-02T12:09:59Z</time>
      </trkpt>
      <trkpt lat="44.02337" lon="6.02599">
        <ele>825</ele>
        <time>2017-10-02T12:11:05Z</time>
      </trkpt>
      <trkpt lat="44.02372" lon="6.02556">
        <ele>823</ele>
        <time>2017-10-02T12:11:48Z</time>
      </trkpt>
      <trkpt lat="44.02387" lon="6.02496">
        <ele>818</ele>
        <time>2017-10-02T12:12:37Z</time>
      </trkpt>
      <trkpt lat="44.02402" lon="6.02434">
        <ele>810</ele>
        <time>2017-10-02T12:13:26Z</time>
      </trkpt>
      <trkpt lat="44.02417" lon="6.02363">
        <ele>804</ele>
        <time>2017-10-02T12:14:22Z</time>
      </trkpt>
      <trkpt lat="44.02441" lon="6.02308">
        <ele>797</ele>
        <time>2017-10-02T12:15:07Z</time>
      </trkpt>
      <trkpt lat="44.02457" lon="6.02239">
        <ele>786</ele>
        <time>2017-10-02T12:16:11Z</time>
      </trkpt>
      <trkpt lat="44.02462" lon="6.02167">
        <ele>778</ele>
        <time>2017-10-02T12:17:09Z</time>
      </trkpt>
      <trkpt lat="44.02474" lon="6.02104">
        <ele>779</ele>
        <time>2017-10-02T12:18:14Z</time>
      </trkpt>
      <trkpt lat="44.02509" lon="6.02059">
        <ele>779</ele>
        <time>2017-10-02T12:18:56Z</time>
      </trkpt>
      <trkpt lat="44.0255" lon="6.02028">
        <ele>779</ele>
        <time>2017-10-02T12:19:38Z</time>
      </trkpt>
      <trkpt lat="44.02597" lon="6.02013">
        <ele>782</ele>
        <time>2017-10-02T12:20:23Z</time>
      </trkpt>
      <trkpt lat="44.02632" lon="6.01972">
        <ele>779</ele>
        <time>2017-10-02T12:21:42Z</time>
      </trkpt>
      <trkpt lat="44.02658" lon="6.01919">
        <ele>777</ele>
        <time>2017-10-02T12:22:22Z</time>
      </trkpt>
      <trkpt lat="44.02689" lon="6.0187">
        <ele>776</ele>
        <time>2017-10-02T12:23:02Z</time>
      </trkpt>
      <trkpt lat="44.02723" lon="6.01825">
        <ele>780</ele>
        <time>2017-10-02T12:23:48Z</time>
      </trkpt>
      <trkpt lat="44.02762" lon="6.0179">
        <ele>777</ele>
        <time>2017-10-02T12:24:32Z</time>
      </trkpt>
      <trkpt lat="44.02808" lon="6.01779">
        <ele>775</ele>
        <time>2017-10-02T12:25:12Z</time>
      </trkpt>
      <trkpt lat="44.02856" lon="6.01746">
        <ele>771</ele>
        <time>2017-10-02T12:26:04Z</time>
      </trkpt>
      <trkpt lat="44.02887" lon="6.01696">
        <ele>771</ele>
        <time>2017-10-02T12:26:46Z</time>
      </trkpt>
      <trkpt lat="44.02917" lon="6.01646">
        <ele>777</ele>
        <time>2017-10-02T12:27:33Z</time>
      </trkpt>
      <trkpt lat="44.02942" lon="6.01583">
        <ele>776</ele>
        <time>2017-10-02T12:28:51Z</time>
      </trkpt>
      <trkpt lat="44.02928" lon="6.0152">
        <ele>769</ele>
        <time>2017-10-02T12:29:38Z</time>
      </trkpt>
      <trkpt lat="44.02912" lon="6.01459">
        <ele>770</ele>
        <time>2017-10-02T12:30:22Z</time>
      </trkpt>
      <trkpt lat="44.0292" lon="6.01396">
        <ele>772</ele>
        <time>2017-10-02T12:31:16Z</time>
      </trkpt>
      <trkpt lat="44.0293" lon="6.01331">
        <ele>760</ele>
        <time>2017-10-02T12:32:04Z</time>
      </trkpt>
      <trkpt lat="44.02951" lon="6.01271">
        <ele>758</ele>
        <time>2017-10-02T12:32:47Z</time>
      </trkpt>
      <trkpt lat="44.02982" lon="6.0122">
        <ele>753</ele>
        <time>2017-10-02T12:33:29Z</time>
      </trkpt>
      <trkpt lat="44.03004" lon="6.01162">
        <ele>752</ele>
        <time>2017-10-02T12:34:09Z</time>
      </trkpt>
      <trkpt lat="44.03007" lon="6.01095">
        <ele>752</ele>
        <time>2017-10-02T12:34:55Z</time>
      </trkpt>
      <trkpt lat="44.03048" lon="6.01064">
        <ele>748</ele>
        <time>2017-10-02T12:35:36Z</time>
      </trkpt>
      <trkpt lat="44.0309" lon="6.01017">
        <ele>739</ele>
        <time>2017-10-02T12:36:30Z</time>
      </trkpt>
      <trkpt lat="44.03131" lon="6.0099">
        <ele>732</ele>
        <time>2017-10-02T12:37:13Z</time>
      </trkpt>
      <trkpt lat="44.03132" lon="6.00916">
        <ele>723</ele>
        <time>2017-10-02T12:38:58Z</time>
      </trkpt>
      <trkpt lat="44.03119" lon="6.00854">
        <ele>725</ele>
        <time>2017-10-02T12:40:12Z</time>
      </trkpt>
      <trkpt lat="44.031" lon="6.00795">
        <ele>723</ele>
        <time>2017-10-02T12:40:57Z</time>
      </trkpt>
      <trkpt lat="44.03129" lon="6.00743">
        <ele>719</ele>
        <time>2017-10-02T12:41:42Z</time>
      </trkpt>
      <trkpt lat="44.03142" lon="6.0068">
        <ele>720</ele>
        <time>2017-10-02T12:42:22Z</time>
      </trkpt>
      <trkpt lat="44.03151" lon="6.00611">
        <ele>723</ele>
        <time>2017-10-02T12:44:17Z</time>
      </trkpt>
      <trkpt lat="44.03169" lon="6.00552">
        <ele>724</ele>
        <time>2017-10-02T12:44:59Z</time>
      </trkpt>
      <trkpt lat="44.03176" lon="6.00489">
        <ele>726</ele>
        <time>2017-10-02T12:45:39Z</time>
      </trkpt>
      <trkpt lat="44.03198" lon="6.00428">
        <ele>727</ele>
        <time>2017-10-02T12:46:22Z</time>
      </trkpt>
      <trkpt lat="44.03205" lon="6.00364">
        <ele>725</ele>
        <time>2017-10-02T12:47:02Z</time>
      </trkpt>
      <trkpt lat="44.03189" lon="6.00293">
        <ele>718</ele>
        <time>2017-10-02T12:47:53Z</time>
      </trkpt>
      <trkpt lat="44.03193" lon="6.00228">
        <ele>713</ele>
        <time>2017-10-02T12:48:33Z</time>
      </trkpt>
      <trkpt lat="44.03218" lon="6.00174">
        <ele>714</ele>
        <time>2017-10-02T12:49:14Z</time>
      </trkpt>
      <trkpt lat="44.03227" lon="6.00104">
        <ele>711</ele>
        <time>2017-10-02T12:51:28Z</time>
      </trkpt>
      <trkpt lat="44.03214" lon="6.00044">
        <ele>706</ele>
        <time>2017-10-02T12:52:09Z</time>
      </trkpt>
      <trkpt lat="44.03202" lon="5.99979">
        <ele>699</ele>
        <time>2017-10-02T12:52:52Z</time>
      </trkpt>
      <trkpt lat="44.03201" lon="5.99914">
        <ele>691</ele>
        <time>2017-10-02T12:53:40Z</time>
      </trkpt>
      <trkpt lat="44.03198" lon="5.99851">
        <ele>683</ele>
        <time>2017-10-02T12:54:27Z</time>
      </trkpt>
      <trkpt lat="44.03178" lon="5.9979">
        <ele>683</ele>
        <time>2017-10-02T12:55:12Z</time>
      </trkpt>
      <trkpt lat="44.03171" lon="5.99725">
        <ele>677</ele>
        <time>2017-10-02T12:55:55Z</time>
      </trkpt>
      <trkpt lat="44.03162" lon="5.9966">
        <ele>675</ele>
        <time>2017-10-02T12:56:40Z</time>
      </trkpt>
      <trkpt lat="44.03151" lon="5.99593">
        <ele>672</ele>
        <time>2017-10-02T12:57:21Z</time>
      </trkpt>
      <trkpt lat="44.03154" lon="5.99528">
        <ele>669</ele>
        <time>2017-10-02T12:58:02Z</time>
      </trkpt>
      <trkpt lat="44.03149" lon="5.99462">
        <ele>664</ele>
        <time>2017-10-02T12:58:44Z</time>
      </trkpt>
      <trkpt lat="44.03143" lon="5.994">
        <ele>656</ele>
        <time>2017-10-02T13:00:23Z</time>
      </trkpt>
      <trkpt lat="44.03127" lon="5.9933">
        <ele>641</ele>
        <time>2017-10-02T13:02:24Z</time>
      </trkpt>
      <trkpt lat="44.03162" lon="5.99277">
        <ele>624</ele>
        <time>2017-10-02T13:03:55Z</time>
      </trkpt>
      <trkpt lat="44.03166" lon="5.99214">
        <ele>615</ele>
        <time>2017-10-02T13:04:52Z</time>
      </trkpt>
      <trkpt lat="44.03158" lon="5.99145">
        <ele>605</ele>
        <time>2017-10-02T13:07:34Z</time>
      </trkpt>
      <trkpt lat="44.03144" lon="5.99083">
        <ele>597</ele>
        <time>2017-10-02T13:09:21Z</time>
      </trkpt>
      <trkpt lat="44.03124" lon="5.99023">
        <ele>591</ele>
        <time>2017-10-02T13:10:24Z</time>
      </trkpt>
      <trkpt lat="44.03109" lon="5.98962">
        <ele>586</ele>
        <time>2017-10-02T13:11:06Z</time>
      </trkpt>
      <trkpt lat="44.03101" lon="5.98891">
        <ele>581</ele>
        <time>2017-10-02T13:12:02Z</time>
      </trkpt>
      <trkpt lat="44.03138" lon="5.98939">
        <ele>566</ele>
        <time>2017-10-02T13:16:15Z</time>
      </trkpt>
      <trkpt lat="44.03163" lon="5.98993">
        <ele>558</ele>
        <time>2017-10-02T13:17:25Z</time>
      </trkpt>
      <trkpt lat="44.03192" lon="5.99051">
        <ele>564</ele>
        <time>2017-10-02T13:18:40Z</time>
      </trkpt>
      <trkpt lat="44.03217" lon="5.99117">
        <ele>562</ele>
        <time>2017-10-02T13:20:19Z</time>
      </trkpt>
      <trkpt lat="44.03248" lon="5.99171">
        <ele>558</ele>
        <time>2017-10-02T13:21:22Z</time>
      </trkpt>
      <trkpt lat="44.03269" lon="5.99229">
        <ele>549</ele>
        <time>2017-10-02T13:22:44Z</time>
      </trkpt>
      <trkpt lat="44.03286" lon="5.99296">
        <ele>557</ele>
        <time>2017-10-02T13:24:08Z</time>
      </trkpt>
      <trkpt lat="44.03302" lon="5.99365">
        <ele>549</ele>
        <time>2017-10-02T13:27:43Z</time>
      </trkpt>
      <trkpt lat="44.03306" lon="5.99435">
        <ele>552</ele>
        <time>2017-10-02T13:28:55Z</time>
      </trkpt>
      <trkpt lat="44.03345" lon="5.99471">
        <ele>543</ele>
        <time>2017-10-02T13:29:47Z</time>
      </trkpt>
      <trkpt lat="44.03393" lon="5.99482">
        <ele>515</ele>
        <time>2017-10-02T13:32:54Z</time>
      </trkpt>
      <trkpt lat="44.03437" lon="5.99506">
        <ele>483</ele>
        <time>2017-10-02T13:36:12Z</time>
      </trkpt>
      <trkpt lat="44.0346" lon="5.99446">
        <ele>461</ele>
        <time>2017-10-02T13:39:05Z</time>
      </trkpt>
      <trkpt lat="44.03465" lon="5.9938">
        <ele>453</ele>
        <time>2017-10-02T13:39:58Z</time>
      </trkpt>
      <trkpt lat="44.03436" lon="5.99328">
        <ele>457</ele>
        <time>2017-10-02T13:40:38Z</time>
      </trkpt>
      <trkpt lat="44.03422" lon="5.99268">
        <ele>456</ele>
        <time>2017-10-02T13:41:28Z</time>
      </trkpt>
      <trkpt lat="44.03418" lon="5.99204">
        <ele>453</ele>
        <time>2017-10-02T13:42:11Z</time>
      </trkpt>
      <trkpt lat="44.03404" lon="5.99144">
        <ele>453</ele>
        <time>2017-10-02T13:42:47Z</time>
      </trkpt>
      <trkpt lat="44.03377" lon="5.99089">
        <ele>452</ele>
        <time>2017-10-02T13:43:58Z</time>
      </trkpt>
      <trkpt lat="44.03349" lon="5.99033">
        <ele>455</ele>
        <time>2017-10-02T13:44:47Z</time>
      </trkpt>
      <trkpt lat="44.03325" lon="5.98977">
        <ele>457</ele>
        <time>2017-10-02T13:45:32Z</time>
      </trkpt>
      <trkpt lat="44.03306" lon="5.98919">
        <ele>456</ele>
        <time>2017-10-02T13:46:15Z</time>
      </trkpt>
      <trkpt lat="44.03289" lon="5.98858">
        <ele>457</ele>
        <time>2017-10-02T13:46:51Z</time>
      </trkpt>
      <trkpt lat="44.03262" lon="5.98803">
        <ele>454</ele>
        <time>2017-10-02T13:47:33Z</time>
      </trkpt>
      <trkpt lat="44.03239" lon="5.98746">
        <ele>461</ele>
        <time>2017-10-02T13:48:36Z</time>
      </trkpt>
      <trkpt lat="44.03213" lon="5.98689">
        <ele>455</ele>
        <time>2017-10-02T13:49:42Z</time>
      </trkpt>
      <trkpt lat="44.032" lon="5.98625">
        <ele>451</ele>
        <time>2017-10-02T13:50:27Z</time>
      </trkpt>
      <trkpt lat="44.03184" lon="5.98565">
        <ele>452</ele>
        <time>2017-10-02T13:51:24Z</time>
      </trkpt>
      <trkpt lat="44.03166" lon="5.98504">
        <ele>449</ele>
        <time>2017-10-02T13:52:17Z</time>
      </trkpt>
      <trkpt lat="44.03154" lon="5.98441">
        <ele>447</ele>
        <time>2017-10-02T13:52:58Z</time>
      </trkpt>
      <trkpt lat="44.0314" lon="5.98378">
        <ele>445</ele>
        <time>2017-10-02T13:53:45Z</time>
      </trkpt>
      <trkpt lat="44.03122" lon="5.98317">
        <ele>441</ele>
        <time>2017-10-02T13:54:32Z</time>
      </trkpt>
      <trkpt lat="44.03109" lon="5.98256">
        <ele>432</ele>
        <time>2017-10-02T13:55:18Z</time>
      </trkpt>
      <trkpt lat="44.03089" lon="5.98197">
        <ele>428</ele>
        <time>2017-10-02T13:56:02Z</time>
      </trkpt>
      <trkpt lat="44.03072" lon="5.98137">
        <ele>425</ele>
        <time>2017-10-02T13:56:52Z</time>
      </trkpt>
      <trkpt lat="44.03055" lon="5.98074">
        <ele>425</ele>
        <time>2017-10-02T13:58:04Z</time>
      </trkpt>
      <trkpt lat="44.03032" lon="5.98015">
        <ele>430</ele>
        <time>2017-10-02T13:59:27Z</time>
      </trkpt>
      <trkpt lat="44.03033" lon="5.9795">
        <ele>430</ele>
        <time>2017-10-02T14:00:15Z</time>
      </trkpt>
      <trkpt lat="44.03033" lon="5.97886">
        <ele>429</ele>
        <time>2017-10-02T14:01:00Z</time>
      </trkpt>
      <trkpt lat="44.02998" lon="5.97839">
        <ele>428</ele>
        <time>2017-10-02T14:01:42Z</time>
      </trkpt>
      <trkpt lat="44.02978" lon="5.97781">
        <ele>428</ele>
        <time>2017-10-02T14:02:29Z</time>
      </trkpt>
      <trkpt lat="44.02942" lon="5.97728">
        <ele>430</ele>
        <time>2017-10-02T14:03:35Z</time>
      </trkpt>
      <trkpt lat="44.02907" lon="5.97684">
        <ele>433</ele>
        <time>2017-10-02T14:04:28Z</time>
      </trkpt>
      <trkpt lat="44.02913" lon="5.97615">
        <ele>431</ele>
        <time>2017-10-02T14:05:34Z</time>
      </trkpt>
      <trkpt lat="44.02923" lon="5.97601">
        <ele>423</ele>
        <time>2017-10-02T14:07:05Z</time>
      </trkpt>
    </trkseg>
  </trk>
</gpx>